Time;durP1;ratioP1;P1;durP2;ratioP2;P2;SDS_P1;SDS_P2;PMS_P1;PMS_P2;Temp;Humidity;BMP_temperature;BMP_pressure;BME280_temperature;BME280_humidity;BME280_pressure;Samples;Min_cycle;Max_cycle;Signal;HPM_P1;HPM_P2
2021/07/03 00:00:07;;;;;;;11.70;10.23;;;24.30;55.90;;;;;;4993433;28;20192;-65
2021/07/03 00:02:34;;;;;;;11.30;10.20;;;24.30;55.90;;;;;;4993260;28;20208;-65
2021/07/03 00:05:01;;;;;;;11.40;10.30;;;24.30;55.90;;;;;;4993248;28;20737;-65
2021/07/03 00:07:43;;;;;;;11.50;10.30;;;24.30;56.00;;;;;;4992596;28;20670;-65
2021/07/03 00:10:12;;;;;;;11.10;9.97;;;24.30;56.00;;;;;;4992965;28;20521;-65
2021/07/03 00:12:39;;;;;;;11.70;10.47;;;24.20;55.90;;;;;;4992811;28;20195;-65
2021/07/03 00:15:19;;;;;;;10.53;9.53;;;24.20;55.90;;;;;;4974251;28;20525;-65
2021/07/03 00:17:45;;;;;;;11.17;10.07;;;24.20;55.90;;;;;;4974731;28;20189;-65
2021/07/03 00:20:15;;;;;;;11.60;10.40;;;24.20;56.00;;;;;;4983422;28;20895;-65
2021/07/03 00:22:45;;;;;;;10.70;9.63;;;24.20;56.00;;;;;;4993064;28;20191;-65
2021/07/03 00:25:16;;;;;;;11.33;10.20;;;24.20;56.00;;;;;;4992542;28;20199;-64
2021/07/03 00:27:44;;;;;;;10.93;9.73;;;24.10;55.90;;;;;;4992710;28;20216;-65
2021/07/03 00:30:13;;;;;;;11.67;10.17;;;24.20;56.00;;;;;;4984743;28;20189;-64
2021/07/03 00:32:42;;;;;;;11.77;10.57;;;24.20;56.00;;;;;;4979388;28;20212;-65
2021/07/03 00:35:14;;;;;;;10.77;9.57;;;24.10;55.90;;;;;;4991509;28;20247;-65
2021/07/03 00:37:46;;;;;;;10.87;9.77;;;24.10;56.00;;;;;;4992370;28;20247;-65
2021/07/03 00:40:14;;;;;;;12.90;11.60;;;24.10;56.00;;;;;;4990681;28;20208;-65
2021/07/03 00:42:46;;;;;;;13.27;10.17;;;24.10;56.00;;;;;;4972834;28;20245;-65
2021/07/03 00:45:15;;;;;;;12.23;9.90;;;24.10;56.00;;;;;;4979548;28;20209;-65
2021/07/03 00:47:45;;;;;;;12.07;10.77;;;24.00;55.90;;;;;;4981632;28;20228;-65
2021/07/03 00:50:15;;;;;;;11.57;10.23;;;24.00;55.90;;;;;;4989743;28;20263;-65
2021/07/03 00:52:45;;;;;;;14.53;11.53;;;24.00;55.90;;;;;;4967469;28;20197;-66
2021/07/03 00:55:16;;;;;;;12.47;11.27;;;24.00;56.00;;;;;;4952964;28;20206;-65
2021/07/03 00:57:46;;;;;;;11.87;10.67;;;24.00;55.90;;;;;;4983305;28;20197;-65
2021/07/03 01:00:16;;;;;;;11.63;10.43;;;24.00;55.90;;;;;;4972204;28;20211;-65
2021/07/03 01:02:48;;;;;;;11.53;10.37;;;24.00;56.00;;;;;;4989724;28;20556;-65
2021/07/03 01:05:17;;;;;;;11.53;10.40;;;24.00;55.90;;;;;;4989068;28;20847;-65
2021/07/03 01:07:45;;;;;;;11.33;10.20;;;24.00;55.90;;;;;;4987267;28;20224;-65
2021/07/03 01:10:23;;;;;;;12.00;10.80;;;24.00;55.90;;;;;;4988490;28;20196;-65
2021/07/03 01:12:54;;;;;;;12.60;10.23;;;24.00;55.90;;;;;;4988259;28;20878;-65
2021/07/03 01:15:22;;;;;;;11.50;10.40;;;24.00;56.00;;;;;;4971582;28;20645;-65
2021/07/03 01:17:49;;;;;;;11.40;10.20;;;23.90;55.90;;;;;;4972623;28;20216;-65
2021/07/03 01:20:27;;;;;;;11.50;10.47;;;23.90;55.90;;;;;;4978594;28;20193;-65
2021/07/03 01:22:56;;;;;;;12.50;11.20;;;23.90;55.90;;;;;;4988269;28;20208;-65
2021/07/03 01:25:25;;;;;;;12.27;11.03;;;23.90;55.90;;;;;;4988486;28;20254;-65
2021/07/03 01:28:10;;;;;;;12.80;10.83;;;23.90;55.90;;;;;;4987226;28;20220;-65
2021/07/03 01:30:41;;;;;;;12.27;11.07;;;23.90;55.90;;;;;;4988007;28;20191;-65
2021/07/03 01:33:08;;;;;;;11.87;10.33;;;23.90;55.90;;;;;;4988479;28;20715;-65
2021/07/03 01:35:36;;;;;;;13.37;10.97;;;23.90;55.90;;;;;;4987399;28;20228;-65
2021/07/03 01:38:16;;;;;;;11.93;10.70;;;23.90;55.90;;;;;;4982159;28;20203;-65
2021/07/03 01:40:47;;;;;;;13.17;10.73;;;23.90;55.90;;;;;;4984093;28;20605;-65
2021/07/03 01:43:25;;;;;;;12.13;10.43;;;23.90;55.80;;;;;;4971475;28;20225;-65
2021/07/03 01:45:55;;;;;;;12.30;11.00;;;23.80;55.80;;;;;;4968705;28;20292;-65
2021/07/03 01:48:30;;;;;;;11.77;10.63;;;23.80;55.80;;;;;;4984505;28;20228;-65
2021/07/03 01:51:11;;;;;;;11.50;10.30;;;23.80;55.80;;;;;;4987964;28;20235;-65
2021/07/03 01:53:40;;;;;;;12.37;11.17;;;23.80;55.80;;;;;;4984718;28;20192;-65
2021/07/03 01:56:10;;;;;;;12.50;11.30;;;23.80;55.70;;;;;;4987207;28;20598;-65
2021/07/03 01:58:39;;;;;;;13.40;11.90;;;23.80;55.80;;;;;;4983378;28;20268;-65
2021/07/03 02:01:08;;;;;;;11.90;10.67;;;23.80;55.80;;;;;;4968511;28;20846;-65
2021/07/03 02:03:36;;;;;;;12.30;11.00;;;23.80;55.80;;;;;;4968356;28;20224;-65
2021/07/03 02:06:04;;;;;;;12.73;10.93;;;23.80;55.80;;;;;;4968922;28;20197;-65
2021/07/03 02:08:33;;;;;;;12.83;10.47;;;23.70;55.70;;;;;;4968774;28;20217;-65
2021/07/03 02:11:00;;;;;;;13.67;10.80;;;23.80;55.80;;;;;;4979856;28;20197;-65
2021/07/03 02:13:30;;;;;;;11.67;10.47;;;23.80;56.00;;;;;;4968276;28;20201;-65
2021/07/03 02:15:58;;;;;;;11.73;10.20;;;23.80;56.00;;;;;;4967949;28;20240;-65
2021/07/03 02:18:29;;;;;;;11.73;10.30;;;23.80;55.90;;;;;;4983682;28;20212;-65
2021/07/03 02:21:00;;;;;;;12.53;11.23;;;23.80;55.80;;;;;;4985265;28;20744;-65
2021/07/03 02:23:27;;;;;;;13.00;11.33;;;23.70;55.70;;;;;;4986504;28;20656;-65
2021/07/03 02:25:54;;;;;;;12.50;10.77;;;23.70;55.70;;;;;;4979426;28;20586;-65
2021/07/03 02:28:21;;;;;;;13.13;11.83;;;23.70;55.70;;;;;;4966875;28;20247;-65
2021/07/03 02:30:52;;;;;;;13.30;12.00;;;23.70;55.60;;;;;;4985558;28;20205;-65
2021/07/03 02:33:19;;;;;;;12.97;11.67;;;23.70;55.60;;;;;;4977075;28;20196;-65
2021/07/03 02:35:46;;;;;;;13.20;11.50;;;23.70;55.50;;;;;;4987087;28;20705;-65
2021/07/03 02:38:15;;;;;;;12.23;10.97;;;23.70;55.70;;;;;;4986456;28;20196;-65
2021/07/03 02:40:44;;;;;;;12.07;10.87;;;23.70;55.50;;;;;;4985908;28;20207;-65
2021/07/03 02:43:14;;;;;;;13.97;11.63;;;23.70;55.50;;;;;;4981737;28;20197;-65
2021/07/03 02:45:42;;;;;;;13.20;11.40;;;23.70;55.40;;;;;;4986338;28;20847;-65
2021/07/03 02:48:09;;;;;;;12.63;11.30;;;23.70;55.40;;;;;;4986989;28;20227;-65
2021/07/03 02:50:40;;;;;;;13.63;12.20;;;23.70;55.40;;;;;;4987143;28;20221;-65
2021/07/03 02:53:10;;;;;;;12.50;11.17;;;23.70;55.40;;;;;;4986482;28;20185;-65
2021/07/03 02:55:40;;;;;;;12.43;11.23;;;23.70;55.40;;;;;;4986341;28;20241;-65
2021/07/03 02:58:11;;;;;;;12.67;11.37;;;23.70;55.40;;;;;;4987210;28;20193;-65
2021/07/03 03:00:38;;;;;;;12.70;11.33;;;23.70;55.40;;;;;;4986488;28;20201;-65
2021/07/03 03:03:08;;;;;;;12.63;11.33;;;23.70;55.40;;;;;;4986910;28;20208;-65
2021/07/03 03:05:36;;;;;;;12.63;11.33;;;23.60;55.40;;;;;;4983847;28;20205;-65
2021/07/03 03:08:05;;;;;;;12.23;11.03;;;23.60;55.30;;;;;;4967785;28;20229;-65
2021/07/03 03:10:33;;;;;;;13.97;11.13;;;23.60;55.30;;;;;;4984592;28;20638;-65
2021/07/03 03:13:02;;;;;;;13.70;11.90;;;23.60;55.30;;;;;;4985894;28;20226;-65
2021/07/03 03:15:29;;;;;;;13.87;11.17;;;23.60;55.40;;;;;;4954163;28;20204;-65
2021/07/03 03:18:00;;;;;;;14.17;12.10;;;23.60;55.40;;;;;;4976444;28;20185;-65
2021/07/03 03:20:28;;;;;;;13.60;12.20;;;23.60;55.30;;;;;;4966036;28;20553;-66
2021/07/03 03:22:55;;;;;;;12.67;11.37;;;23.60;55.30;;;;;;4967541;28;20658;-65
2021/07/03 03:25:21;;;;;;;12.33;11.13;;;23.60;55.30;;;;;;4965867;28;20225;-65
2021/07/03 03:27:52;;;;;;;12.67;11.33;;;23.60;55.30;;;;;;4974118;28;20313;-65
2021/07/03 03:30:19;;;;;;;13.83;11.47;;;23.60;55.30;;;;;;4977428;28;20221;-64
2021/07/03 03:32:47;;;;;;;13.30;11.90;;;23.60;55.20;;;;;;4977714;28;20208;-66
2021/07/03 03:35:19;;;;;;;14.00;12.10;;;23.60;55.20;;;;;;4985188;28;20833;-64
2021/07/03 03:37:47;;;;;;;14.00;12.60;;;23.50;55.80;;;;;;4986552;28;20188;-64
2021/07/03 03:40:14;;;;;;;12.47;11.27;;;23.60;55.30;;;;;;4986453;28;20238;-65
2021/07/03 03:42:42;;;;;;;12.60;11.30;;;23.50;55.20;;;;;;4972559;28;20199;-64
2021/07/03 03:45:10;;;;;;;12.57;10.83;;;23.50;55.20;;;;;;4985900;28;20271;-64
2021/07/03 03:47:38;;;;;;;12.90;11.70;;;23.50;55.20;;;;;;4986291;28;20220;-66
2021/07/03 03:50:06;;;;;;;15.20;11.90;;;23.60;55.30;;;;;;4980542;28;20229;-66
2021/07/03 03:52:37;;;;;;;12.83;11.53;;;23.60;55.30;;;;;;4967465;28;20313;-64
2021/07/03 03:55:07;;;;;;;13.20;11.60;;;23.50;55.20;;;;;;4966942;28;20213;-64
2021/07/03 03:57:35;;;;;;;13.27;11.97;;;23.50;55.20;;;;;;4966776;28;20213;-64
2021/07/03 04:00:07;;;;;;;13.17;11.27;;;23.50;55.30;;;;;;4971514;28;20196;-65
2021/07/03 04:02:35;;;;;;;13.57;12.23;;;23.50;55.30;;;;;;4985413;28;20200;-65
2021/07/03 04:05:07;;;;;;;13.90;12.50;;;23.50;55.30;;;;;;4986113;28;20211;-65
2021/07/03 04:07:34;;;;;;;13.40;12.00;;;23.50;55.30;;;;;;4965475;28;20239;-65
2021/07/03 04:10:04;;;;;;;13.00;11.80;;;23.50;55.30;;;;;;4966718;28;20190;-65
2021/07/03 04:12:35;;;;;;;13.63;12.23;;;23.50;55.40;;;;;;4982588;28;20196;-65
2021/07/03 04:15:08;;;;;;;16.60;12.73;;;23.50;55.50;;;;;;4985220;28;20870;-65
2021/07/03 04:17:34;;;;;;;13.53;12.13;;;23.50;55.40;;;;;;4986036;28;20208;-66
2021/07/03 04:20:08;;;;;;;14.83;13.23;;;23.50;55.40;;;;;;4989126;28;20200;-66
2021/07/03 04:22:42;;;;;;;14.43;12.93;;;23.50;55.50;;;;;;4987634;28;20232;-66
2021/07/03 04:25:15;;;;;;;14.20;12.80;;;23.50;55.50;;;;;;4973058;28;20590;-65
2021/07/03 04:27:42;;;;;;;13.47;12.07;;;23.50;55.50;;;;;;4972787;28;20831;-66
2021/07/03 04:30:11;;;;;;;14.00;12.57;;;23.50;55.50;;;;;;4974836;28;20281;-63
2021/07/03 04:32:40;;;;;;;15.20;13.23;;;23.50;55.60;;;;;;4984602;28;20208;-63
2021/07/03 04:35:10;;;;;;;15.30;13.70;;;23.50;55.60;;;;;;4984400;28;20216;-63
2021/07/03 04:37:40;;;;;;;15.10;13.60;;;23.50;55.60;;;;;;4987099;28;20187;-63
2021/07/03 04:40:10;;;;;;;15.73;14.10;;;23.50;55.60;;;;;;4988373;28;20870;-63
2021/07/03 04:42:40;;;;;;;15.30;13.70;;;23.50;55.60;;;;;;4989368;28;20200;-64
2021/07/03 04:45:07;;;;;;;16.10;14.07;;;23.50;55.70;;;;;;4989474;28;20878;-64
2021/07/03 04:47:36;;;;;;;15.93;14.27;;;23.50;55.70;;;;;;4988559;28;20287;-64
2021/07/03 04:50:18;;;;;;;15.60;14.00;;;23.50;55.70;;;;;;4989597;28;20227;-64
2021/07/03 04:52:48;;;;;;;15.33;13.90;;;23.50;55.80;;;;;;4989674;28;20846;-64
2021/07/03 04:55:16;;;;;;;16.13;14.47;;;23.50;55.80;;;;;;4988941;28;20204;-63
2021/07/03 04:57:43;;;;;;;15.77;13.97;;;23.50;55.90;;;;;;4989187;28;20200;-65
2021/07/03 05:00:15;;;;;;;16.20;14.60;;;23.50;55.90;;;;;;4986685;28;20224;-63
2021/07/03 05:02:44;;;;;;;16.60;14.90;;;23.50;55.90;;;;;;4988878;28;20200;-65
2021/07/03 05:05:12;;;;;;;18.83;15.50;;;23.50;56.00;;;;;;4988048;28;20208;-63
2021/07/03 05:07:44;;;;;;;16.27;14.73;;;23.50;56.00;;;;;;4987798;28;20199;-64
2021/07/03 05:10:13;;;;;;;17.90;16.00;;;23.50;56.00;;;;;;4987538;28;20198;-64
2021/07/03 05:12:40;;;;;;;16.60;15.00;;;23.50;56.00;;;;;;4986157;28;20219;-64
2021/07/03 05:15:09;;;;;;;16.40;14.73;;;23.50;56.00;;;;;;4988402;28;20203;-63
2021/07/03 05:17:40;;;;;;;16.47;14.77;;;23.50;56.00;;;;;;4988357;28;20545;-63
2021/07/03 05:20:10;;;;;;;17.97;15.90;;;23.40;56.00;;;;;;4988648;28;20188;-64
2021/07/03 05:22:38;;;;;;;17.17;15.27;;;23.50;56.10;;;;;;4989498;28;20769;-65
2021/07/03 05:25:07;;;;;;;16.90;15.20;;;23.50;56.10;;;;;;4973919;28;20205;-64
2021/07/03 05:27:39;;;;;;;17.40;15.50;;;23.40;56.10;;;;;;4968382;28;20201;-65
2021/07/03 05:30:09;;;;;;;17.13;15.37;;;23.50;56.20;;;;;;4968674;28;20213;-65
2021/07/03 05:32:37;;;;;;;17.00;14.80;;;23.50;56.20;;;;;;4953171;28;20217;-65
2021/07/03 05:35:13;;;;;;;18.10;16.20;;;23.50;56.20;;;;;;4979522;28;20565;-64
2021/07/03 05:37:44;;;;;;;18.10;15.73;;;23.50;56.20;;;;;;4969344;28;20181;-65
2021/07/03 05:40:18;;;;;;;17.40;15.60;;;23.40;56.20;;;;;;4972737;28;20215;-65
2021/07/03 05:42:47;;;;;;;16.43;14.83;;;23.50;56.30;;;;;;4988252;28;20198;-65
2021/07/03 05:45:17;;;;;;;17.60;15.90;;;23.50;56.30;;;;;;4987550;28;20227;-65
2021/07/03 05:47:51;;;;;;;18.13;16.30;;;23.50;56.40;;;;;;4986156;28;20200;-65
2021/07/03 05:50:21;;;;;;;18.53;15.13;;;23.50;56.40;;;;;;4986520;28;20203;-64
2021/07/03 05:52:49;;;;;;;19.20;15.93;;;23.50;56.40;;;;;;4987563;28;20192;-64
2021/07/03 05:55:21;;;;;;;16.80;15.10;;;23.50;56.40;;;;;;4987889;28;20252;-65
2021/07/03 05:57:50;;;;;;;17.03;15.23;;;23.50;56.50;;;;;;4986836;28;20267;-65
2021/07/03 06:00:19;;;;;;;16.63;15.00;;;23.50;56.50;;;;;;4987822;28;20196;-64
2021/07/03 06:02:48;;;;;;;17.77;15.33;;;23.50;56.50;;;;;;4986888;28;20229;-64
2021/07/03 06:05:20;;;;;;;17.33;14.83;;;23.50;56.60;;;;;;4987478;28;20215;-64
2021/07/03 06:07:48;;;;;;;15.63;14.13;;;23.50;56.60;;;;;;4986533;28;20193;-65
2021/07/03 06:10:16;;;;;;;16.93;15.17;;;23.50;56.60;;;;;;4987732;28;20199;-64
2021/07/03 06:12:44;;;;;;;16.17;14.47;;;23.50;56.60;;;;;;4980625;28;20198;-65
2021/07/03 06:15:14;;;;;;;15.03;13.53;;;23.50;56.60;;;;;;4967939;28;20201;-64
2021/07/03 06:17:44;;;;;;;15.47;13.90;;;23.40;56.60;;;;;;4977104;28;20196;-64
2021/07/03 06:20:13;;;;;;;14.90;13.50;;;23.40;56.60;;;;;;4987449;28;20223;-64
2021/07/03 06:22:43;;;;;;;16.37;14.67;;;23.50;56.70;;;;;;4987344;28;20177;-64
2021/07/03 06:25:15;;;;;;;15.43;13.87;;;23.50;56.80;;;;;;4987075;28;20192;-64
2021/07/03 06:27:45;;;;;;;15.50;13.90;;;23.50;56.80;;;;;;4987625;28;20645;-64
2021/07/03 06:30:15;;;;;;;14.17;12.77;;;23.50;56.90;;;;;;4977884;28;20285;-69
2021/07/03 06:32:43;;;;;;;14.57;13.07;;;23.50;56.90;;;;;;4982841;28;20300;-72
2021/07/03 06:35:12;;;;;;;15.50;13.13;;;23.50;57.00;;;;;;4981410;28;20588;-68
2021/07/03 06:37:41;;;;;;;14.50;12.60;;;23.50;57.30;;;;;;4982573;28;20197;-71
2021/07/03 06:40:11;;;;;;;14.37;12.87;;;23.50;57.00;;;;;;4979929;28;20236;-68
2021/07/03 06:42:44;;;;;;;13.90;12.50;;;23.60;57.00;;;;;;4982712;28;20208;-67
2021/07/03 06:45:25;;;;;;;13.97;12.57;;;23.60;56.90;;;;;;4980740;28;20300;-68
2021/07/03 06:47:52;;;;;;;12.93;11.63;;;23.60;56.90;;;;;;4977409;28;20231;-68
2021/07/03 06:50:21;;;;;;;13.77;12.37;;;23.60;56.80;;;;;;4990600;28;20216;-68
2021/07/03 06:52:48;;;;;;;13.80;12.50;;;23.60;56.80;;;;;;4982309;28;20236;-70
2021/07/03 06:55:18;;;;;;;14.40;11.93;;;23.70;56.80;;;;;;4975713;28;20252;-71
2021/07/03 06:57:46;;;;;;;13.63;12.23;;;23.70;56.80;;;;;;4982034;28;21098;-71
2021/07/03 07:00:15;;;;;;;12.30;11.10;;;23.70;56.80;;;;;;4981133;28;20489;-72
2021/07/03 07:02:46;;;;;;;12.40;11.20;;;23.80;57.10;;;;;;4973578;28;20200;-70
2021/07/03 07:05:23;;;;;;;12.37;11.07;;;23.80;56.80;;;;;;4987057;28;20222;-72
2021/07/03 07:07:51;;;;;;;12.60;11.37;;;23.80;56.80;;;;;;4980185;28;20232;-71
2021/07/03 07:10:32;;;;;;;12.27;11.07;;;23.80;57.30;;;;;;4990270;28;20282;-70
2021/07/03 07:13:09;;;;;;;11.77;10.67;;;23.80;56.70;;;;;;4991630;28;20513;-71
2021/07/03 07:15:38;;;;;;;11.97;10.83;;;23.90;56.70;;;;;;4984604;28;20228;-70
2021/07/03 07:18:07;;;;;;;12.07;10.87;;;23.90;56.50;;;;;;4984935;28;20433;-65
2021/07/03 07:20:37;;;;;;;12.17;10.17;;;23.90;56.50;;;;;;4981555;28;20639;-66
2021/07/03 07:23:06;;;;;;;10.80;9.77;;;24.00;56.60;;;;;;4981220;28;20216;-65
2021/07/03 07:25:36;;;;;;;10.97;9.47;;;23.90;56.60;;;;;;4971698;28;20657;-66
2021/07/03 07:28:03;;;;;;;10.40;8.70;;;23.90;56.60;;;;;;4978821;28;20196;-66
2021/07/03 07:30:31;;;;;;;12.40;9.27;;;23.90;56.60;;;;;;4981843;28;20228;-65
2021/07/03 07:33:00;;;;;;;9.87;8.83;;;23.90;57.00;;;;;;4970756;28;20232;-65
2021/07/03 07:35:30;;;;;;;9.70;8.70;;;23.90;57.20;;;;;;4988661;28;20774;-64
2021/07/03 07:38:02;;;;;;;9.40;8.40;;;23.90;57.10;;;;;;4989163;28;20218;-66
2021/07/03 07:40:29;;;;;;;9.63;8.70;;;23.90;57.00;;;;;;4979053;28;20197;-64
2021/07/03 07:42:58;;;;;;;9.50;8.60;;;23.90;57.00;;;;;;4986759;28;20204;-64
2021/07/03 07:45:29;;;;;;;8.93;8.13;;;23.90;56.90;;;;;;4973627;28;20258;-69
2021/07/03 07:47:57;;;;;;;10.63;9.03;;;23.90;57.10;;;;;;4979894;28;20603;-67
2021/07/03 07:50:30;;;;;;;10.47;8.87;;;23.90;57.30;;;;;;4980619;28;20224;-67
2021/07/03 07:53:00;;;;;;;11.37;9.53;;;24.00;57.60;;;;;;4979593;28;20381;-67
2021/07/03 07:55:28;;;;;;;12.73;9.73;;;24.00;58.10;;;;;;4990017;28;20204;-69
2021/07/03 07:57:56;;;;;;;13.30;9.97;;;24.00;58.10;;;;;;4981614;28;20681;-68
2021/07/03 08:00:26;;;;;;;10.47;9.27;;;24.00;58.10;;;;;;4986400;28;20282;-71
2021/07/03 08:02:54;;;;;;;11.03;9.93;;;24.10;58.00;;;;;;4987181;28;20219;-70
2021/07/03 08:05:24;;;;;;;11.43;9.70;;;24.10;58.10;;;;;;4983439;28;20212;-69
2021/07/03 08:07:52;;;;;;;10.07;8.40;;;24.10;58.00;;;;;;4980151;28;20209;-69
2021/07/03 08:10:27;;;;;;;10.07;9.03;;;24.10;57.80;;;;;;4988774;28;20231;-72
2021/07/03 08:12:56;;;;;;;10.23;9.03;;;24.10;57.80;;;;;;4984952;28;20196;-72
2021/07/03 08:15:28;;;;;;;10.20;9.23;;;24.20;57.70;;;;;;4982928;28;20197;-70
2021/07/03 08:17:56;;;;;;;8.80;7.90;;;24.20;57.70;;;;;;4978014;28;20209;-72
2021/07/03 08:20:24;;;;;;;9.83;8.93;;;24.20;57.70;;;;;;4982638;28;20252;-68
2021/07/03 08:22:54;;;;;;;9.67;8.13;;;24.20;57.50;;;;;;4984951;28;20200;-70
2021/07/03 08:25:24;;;;;;;9.53;8.63;;;24.20;57.50;;;;;;4970300;28;20630;-71
2021/07/03 08:27:54;;;;;;;11.37;9.90;;;24.30;57.60;;;;;;4981328;28;20545;-71
2021/07/03 08:30:21;;;;;;;9.87;7.27;;;24.30;57.60;;;;;;4949994;28;20256;-68
2021/07/03 08:32:51;;;;;;;9.57;8.33;;;24.30;57.50;;;;;;4982263;28;20803;-63
2021/07/03 08:35:20;;;;;;;9.07;8.17;;;24.30;57.40;;;;;;4977171;28;20981;-64
2021/07/03 08:37:52;;;;;;;7.27;6.57;;;24.30;57.20;;;;;;4983483;28;20211;-64
2021/07/03 08:40:21;;;;;;;8.07;7.27;;;24.40;57.10;;;;;;4989455;28;20536;-63
2021/07/03 08:42:51;;;;;;;10.43;7.60;;;24.30;56.70;;;;;;4984608;28;20208;-62
2021/07/03 08:45:20;;;;;;;8.47;7.73;;;24.40;56.90;;;;;;4978583;28;20216;-65
2021/07/03 08:47:49;;;;;;;8.33;7.57;;;24.30;56.90;;;;;;4980902;28;20207;-64
2021/07/03 08:50:19;;;;;;;10.77;9.20;;;24.30;56.80;;;;;;4982343;28;20278;-63
2021/07/03 08:52:50;;;;;;;8.43;7.57;;;24.30;56.90;;;;;;4982361;28;20653;-64
2021/07/03 08:55:23;;;;;;;7.60;6.90;;;24.30;56.90;;;;;;4979025;28;20201;-63
2021/07/03 08:58:14;;;;;;;9.63;7.53;;;24.40;56.80;;;;;;4963045;28;20215;-67
2021/07/03 09:00:46;;;;;;;8.60;7.00;;;24.30;57.20;;;;;;4976495;28;20205;-69
2021/07/03 09:03:19;;;;;;;10.40;8.83;;;24.40;57.20;;;;;;4982768;28;20195;-68
2021/07/03 09:05:55;;;;;;;9.47;8.57;;;24.40;57.20;;;;;;4977273;28;20205;-71
2021/07/03 09:08:36;;;;;;;8.73;7.90;;;24.40;57.10;;;;;;4956518;28;20213;-68
2021/07/03 09:11:12;;;;;;;7.57;6.87;;;24.40;57.00;;;;;;4990772;28;20206;-66
2021/07/03 09:13:44;;;;;;;13.40;7.23;;;24.50;57.20;;;;;;4982900;28;20198;-70
2021/07/03 09:16:16;;;;;;;8.47;7.47;;;24.50;57.30;;;;;;4982816;28;20247;-69
2021/07/03 09:18:54;;;;;;;7.37;6.67;;;24.50;57.10;;;;;;4976822;28;20252;-67
2021/07/03 09:21:21;;;;;;;7.83;6.93;;;24.60;57.20;;;;;;4976562;28;20216;-67
2021/07/03 09:23:48;;;;;;;8.07;6.77;;;24.60;56.90;;;;;;4976219;28;20211;-68
2021/07/03 09:26:16;;;;;;;8.33;6.57;;;24.60;57.00;;;;;;4986262;28;20215;-65
2021/07/03 09:28:48;;;;;;;8.40;7.30;;;24.70;57.00;;;;;;4975187;28;20677;-64
2021/07/03 09:31:20;;;;;;;8.63;7.57;;;24.70;56.90;;;;;;4982001;28;20548;-66
2021/07/03 09:33:52;;;;;;;11.00;7.87;;;24.70;56.50;;;;;;4975787;28;20262;-66
2021/07/03 09:36:38;;;;;;;36.50;15.30;;;24.70;56.30;;;;;;4976867;28;20319;-69
2021/07/03 09:39:06;;;;;;;32.90;14.43;;;24.70;56.90;;;;;;4979624;28;20192;-70
2021/07/03 09:41:35;;;;;;;36.17;13.47;;;24.70;57.00;;;;;;4977317;28;20215;-70
2021/07/03 09:44:07;;;;;;;33.13;13.20;;;24.80;56.70;;;;;;4970156;28;20216;-68
2021/07/03 09:46:36;;;;;;;28.73;13.07;;;24.80;56.60;;;;;;4981025;28;20262;-70
2021/07/03 09:49:07;;;;;;;22.70;10.53;;;24.80;56.80;;;;;;4984141;28;20196;-70
2021/07/03 09:51:40;;;;;;;18.47;9.43;;;24.80;56.50;;;;;;4975866;28;20234;-69
2021/07/03 09:54:12;;;;;;;14.60;8.87;;;24.90;56.50;;;;;;4976437;28;20287;-71
2021/07/03 09:56:41;;;;;;;14.00;8.50;;;24.90;56.50;;;;;;4978161;28;20201;-72
2021/07/03 09:59:14;;;;;;;13.90;8.30;;;24.90;57.50;;;;;;4983210;28;20206;-70
2021/07/03 10:01:43;;;;;;;13.87;8.67;;;24.90;57.40;;;;;;4986718;28;20220;-69
2021/07/03 10:04:12;;;;;;;11.20;7.67;;;24.90;57.20;;;;;;4980769;28;20212;-71
2021/07/03 10:06:53;;;;;;;8.57;7.30;;;25.00;57.20;;;;;;4995618;28;20204;-69
2021/07/03 10:09:36;;;;;;;12.57;7.93;;;25.00;56.90;;;;;;4980246;28;20248;-69
2021/07/03 10:12:14;;;;;;;10.30;7.03;;;25.00;56.50;;;;;;4972074;28;20213;-70
2021/07/03 10:14:45;;;;;;;10.57;7.17;;;25.00;56.60;;;;;;4986532;28;20196;-69
2021/07/03 10:17:30;;;;;;;11.27;7.20;;;25.10;56.50;;;;;;4983695;28;20191;-70
2021/07/03 10:19:59;;;;;;;7.67;6.87;;;25.10;55.80;;;;;;4983584;28;20224;-71
2021/07/03 10:22:32;;;;;;;7.60;6.80;;;25.10;56.00;;;;;;4978413;28;20208;-67
2021/07/03 10:25:14;;;;;;;7.30;6.60;;;25.10;55.70;;;;;;4981713;28;20650;-67
2021/07/03 10:27:58;;;;;;;8.00;6.77;;;25.20;55.20;;;;;;4972708;28;20209;-67
2021/07/03 10:30:35;;;;;;;7.07;6.10;;;25.20;54.80;;;;;;4977809;28;20452;-67
2021/07/03 10:33:12;;;;;;;7.23;6.53;;;25.20;54.90;;;;;;4979419;28;20274;-67
2021/07/03 10:35:57;;;;;;;6.40;5.80;;;25.10;54.80;;;;;;4973619;28;20239;-67
2021/07/03 10:38:40;;;;;;;7.67;6.33;;;25.10;54.60;;;;;;4984086;28;20208;-67
2021/07/03 10:41:20;;;;;;;6.43;5.70;;;25.10;54.60;;;;;;4981469;28;20192;-67
2021/07/03 10:43:49;;;;;;;6.77;6.03;;;25.10;54.70;;;;;;4975704;28;20215;-68
2021/07/03 10:46:30;;;;;;;8.00;6.03;;;25.10;54.50;;;;;;4971220;28;20653;-68
2021/07/03 10:49:06;;;;;;;6.47;5.87;;;25.10;54.40;;;;;;4982534;28;20215;-68
2021/07/03 10:51:39;;;;;;;6.90;6.30;;;25.10;54.40;;;;;;4982821;28;20220;-68
2021/07/03 10:54:14;;;;;;;7.20;6.50;;;25.10;54.30;;;;;;4975518;28;20307;-68
2021/07/03 10:57:06;;;;;;;6.93;5.77;;;25.10;54.30;;;;;;4981256;28;20200;-67
2021/07/03 10:59:37;;;;;;;6.13;5.63;;;25.10;54.30;;;;;;4974615;28;20221;-66
2021/07/03 11:02:19;;;;;;;6.37;5.70;;;25.10;55.10;;;;;;4975500;28;20521;-67
2021/07/03 11:04:54;;;;;;;7.27;6.00;;;25.10;54.50;;;;;;4978858;28;20294;-67
2021/07/03 11:07:32;;;;;;;7.90;5.70;;;25.10;54.50;;;;;;4976858;28;20936;-69
2021/07/03 11:10:12;;;;;;;6.40;5.47;;;25.10;55.00;;;;;;4978938;28;20216;-68
2021/07/03 11:12:48;;;;;;;5.53;5.07;;;25.10;55.20;;;;;;4973553;28;20196;-67
2021/07/03 11:15:20;;;;;;;5.60;4.97;;;25.10;55.70;;;;;;4978082;28;20200;-65
2021/07/03 11:17:48;;;;;;;6.10;5.40;;;25.10;55.50;;;;;;4984673;28;20209;-68
2021/07/03 11:20:36;;;;;;;5.50;5.00;;;25.20;55.50;;;;;;4983303;28;20200;-69
2021/07/03 11:23:18;;;;;;;5.73;5.10;;;25.20;56.30;;;;;;4982121;28;20214;-71
2021/07/03 11:25:46;;;;;;;5.67;5.17;;;25.20;56.70;;;;;;4974617;28;20220;-69
2021/07/03 11:28:24;;;;;;;5.30;4.80;;;25.20;56.20;;;;;;4966249;28;20214;-69
2021/07/03 11:31:00;;;;;;;6.67;5.20;;;25.30;56.00;;;;;;4979697;28;20231;-65
2021/07/03 11:33:32;;;;;;;5.50;5.10;;;25.30;56.20;;;;;;4979453;28;20193;-71
2021/07/03 11:36:02;;;;;;;6.27;4.80;;;25.30;55.60;;;;;;4976606;28;20236;-73
2021/07/03 11:38:31;;;;;;;6.73;5.70;;;25.30;55.60;;;;;;4965799;28;20216;-73
2021/07/03 11:41:04;;;;;;;8.53;5.33;;;25.30;55.40;;;;;;4984083;28;20213;-70
2021/07/03 11:43:37;;;;;;;5.43;4.93;;;25.30;55.10;;;;;;4981815;28;20274;-73
2021/07/03 11:46:08;;;;;;;5.20;4.70;;;25.30;55.30;;;;;;4980424;28;20218;-72
2021/07/03 11:48:35;;;;;;;5.60;4.73;;;25.40;55.10;;;;;;4981652;28;20242;-70
2021/07/03 11:51:06;;;;;;;5.53;5.07;;;25.40;55.10;;;;;;4982219;28;20247;-74
2021/07/03 11:53:36;;;;;;;5.13;4.63;;;25.40;54.80;;;;;;4979688;28;20631;-71
2021/07/03 11:56:06;;;;;;;5.70;5.20;;;25.40;54.80;;;;;;4982584;28;20662;-69
2021/07/03 11:58:38;;;;;;;5.00;4.60;;;25.40;55.00;;;;;;4981010;28;20898;-68
2021/07/03 12:01:07;;;;;;;5.00;4.60;;;25.50;55.30;;;;;;4984314;28;20220;-70
2021/07/03 12:03:38;;;;;;;4.90;4.50;;;25.50;55.10;;;;;;4994084;28;20198;-68
2021/07/03 12:06:10;;;;;;;5.00;4.60;;;25.50;55.30;;;;;;4976470;28;20189;-69
2021/07/03 12:08:49;;;;;;;5.60;5.10;;;25.50;54.70;;;;;;4988834;28;20200;-70
2021/07/03 12:11:19;;;;;;;5.67;5.10;;;25.50;54.20;;;;;;4984569;28;20219;-71
2021/07/03 12:13:53;;;;;;;7.57;4.90;;;25.50;54.10;;;;;;4980342;28;20693;-68
2021/07/03 12:16:23;;;;;;;5.60;5.10;;;25.50;54.20;;;;;;4975446;28;20220;-71
2021/07/03 12:18:59;;;;;;;5.00;4.60;;;25.60;54.20;;;;;;4979132;28;20215;-69
2021/07/03 12:21:31;;;;;;;5.40;4.90;;;25.50;54.00;;;;;;4980795;28;20624;-69
2021/07/03 12:24:27;;;;;;;5.60;5.10;;;25.60;54.10;;;;;;4968474;28;20210;-68
2021/07/03 12:26:59;;;;;;;6.20;5.17;;;25.60;54.10;;;;;;4981361;28;20303;-68
2021/07/03 12:29:36;;;;;;;10.20;4.70;;;25.60;54.10;;;;;;4978462;28;20216;-67
2021/07/03 12:32:08;;;;;;;5.63;5.03;;;25.60;54.70;;;;;;4979775;28;20203;-68
2021/07/03 12:34:39;;;;;;;5.90;4.70;;;25.60;53.70;;;;;;4985896;28;20242;-68
2021/07/03 12:37:12;;;;;;;5.30;4.80;;;25.70;54.00;;;;;;4977673;28;20780;-67
2021/07/03 12:39:47;;;;;;;4.60;4.20;;;25.70;54.40;;;;;;4989557;28;20281;-67
2021/07/03 12:42:17;;;;;;;5.07;4.67;;;25.70;54.30;;;;;;4983809;28;20212;-69
2021/07/03 12:44:52;;;;;;;5.10;4.07;;;25.70;54.10;;;;;;4990797;28;20212;-69
2021/07/03 12:47:23;;;;;;;4.67;4.27;;;25.70;54.40;;;;;;4998495;28;20184;-66
2021/07/03 12:49:56;;;;;;;7.50;4.90;;;25.70;54.20;;;;;;4981299;28;20236;-71
2021/07/03 12:52:41;;;;;;;5.57;5.10;;;25.80;54.20;;;;;;4981584;28;20209;-69